Time;durP1;ratioP1;P1;durP2;ratioP2;P2;SDS_P1;SDS_P2;PMS_P1;PMS_P2;Temp;Humidity;BMP_temperature;BMP_pressure;BME280_temperature;BME280_humidity;BME280_pressure;Samples;Min_cycle;Max_cycle;Signal;HPM_P1;HPM_P2
2022/03/15 00:01:02;;;;;;;25.55;12.40;;;7.50;59.50;;;;;;4944224;28;20407;-73
2022/03/15 00:03:28;;;;;;;27.90;11.60;;;7.40;60.10;;;;;;4944589;28;20405;-73
2022/03/15 00:05:54;;;;;;;20.50;11.77;;;7.40;60.70;;;;;;4949450;29;20402;-73
2022/03/15 00:08:19;;;;;;;24.13;11.20;;;7.40;61.10;;;;;;4938260;28;20863;-75
2022/03/15 00:10:47;;;;;;;19.02;10.60;;;7.30;61.00;;;;;;4948421;28;20460;-73
2022/03/15 00:13:13;;;;;;;19.77;11.52;;;7.30;61.40;;;;;;4945121;28;20413;-75
2022/03/15 00:15:40;;;;;;;19.88;11.23;;;7.30;61.40;;;;;;4967636;28;20487;-74
2022/03/15 00:18:07;;;;;;;21.40;11.93;;;7.20;61.50;;;;;;4947739;28;20888;-74
2022/03/15 00:20:32;;;;;;;21.58;10.85;;;7.20;62.30;;;;;;4949699;28;20771;-73
2022/03/15 00:23:00;;;;;;;20.95;10.90;;;7.10;62.80;;;;;;4946890;28;20485;-73
2022/03/15 00:25:27;;;;;;;22.00;11.40;;;7.10;63.20;;;;;;4959272;28;20756;-73
2022/03/15 00:27:54;;;;;;;18.15;11.07;;;7.20;62.80;;;;;;4945615;29;20444;-73
2022/03/15 00:30:21;;;;;;;21.20;10.10;;;7.10;63.00;;;;;;4938770;28;20407;-74
2022/03/15 00:32:47;;;;;;;19.95;11.38;;;7.20;62.90;;;;;;4939279;28;20916;-73
2022/03/15 00:35:20;;;;;;;25.27;11.52;;;7.20;62.90;;;;;;4943635;28;20897;-74
2022/03/15 00:37:46;;;;;;;19.90;10.47;;;7.10;62.70;;;;;;4952608;28;20486;-73
2022/03/15 00:40:14;;;;;;;20.23;10.18;;;7.20;62.00;;;;;;4934512;28;20425;-74
2022/03/15 00:42:40;;;;;;;19.03;10.63;;;7.20;61.80;;;;;;4934912;28;20535;-74
2022/03/15 00:45:07;;;;;;;23.70;10.80;;;7.20;61.80;;;;;;4945085;28;20408;-74
2022/03/15 00:47:33;;;;;;;18.98;11.15;;;7.10;61.80;;;;;;4979531;28;20921;-74
2022/03/15 00:49:58;;;;;;;20.80;9.77;;;7.20;61.60;;;;;;4946796;28;20406;-74
2022/03/15 00:52:24;;;;;;;19.42;10.55;;;7.10;61.40;;;;;;4945693;29;20449;-74
2022/03/15 00:54:50;;;;;;;19.42;9.90;;;7.10;61.50;;;;;;4935087;28;20400;-74
2022/03/15 00:57:15;;;;;;;17.37;8.87;;;7.20;60.60;;;;;;4952127;28;20413;-75
2022/03/15 00:59:41;;;;;;;15.93;8.80;;;7.20;59.90;;;;;;4936678;28;20419;-73
2022/03/15 01:02:07;;;;;;;19.23;10.43;;;7.10;60.90;;;;;;4945521;28;20409;-73
2022/03/15 01:04:32;;;;;;;17.30;8.93;;;7.20;59.40;;;;;;4934646;28;20403;-73
2022/03/15 01:06:58;;;;;;;17.13;9.50;;;7.30;59.00;;;;;;4935661;28;20461;-74
2022/03/15 01:09:23;;;;;;;18.83;9.87;;;7.20;59.00;;;;;;4950346;28;20409;-74
2022/03/15 01:11:49;;;;;;;21.33;9.63;;;7.20;58.60;;;;;;4947585;29;20432;-74
2022/03/15 01:14:15;;;;;;;16.95;9.57;;;7.20;58.40;;;;;;4937750;28;20460;-72
2022/03/15 01:16:40;;;;;;;17.13;9.45;;;7.20;58.70;;;;;;4958791;28;20391;-74
2022/03/15 01:19:07;;;;;;;23.35;10.10;;;7.30;57.90;;;;;;4946706;28;20415;-74
2022/03/15 01:21:39;;;;;;;17.45;9.20;;;7.40;56.60;;;;;;4948911;29;20398;-73
2022/03/15 01:24:09;;;;;;;18.35;10.48;;;7.40;56.50;;;;;;4946512;28;20400;-74
2022/03/15 01:26:37;;;;;;;16.23;9.10;;;7.30;56.70;;;;;;4933598;28;20403;-74
2022/03/15 01:29:03;;;;;;;15.77;8.75;;;7.40;56.00;;;;;;4945254;29;20890;-73
2022/03/15 01:31:29;;;;;;;12.63;7.65;;;7.40;55.70;;;;;;4962577;28;20403;-73
2022/03/15 01:33:55;;;;;;;24.77;9.15;;;7.40;55.30;;;;;;4945642;28;20404;-73
2022/03/15 01:36:21;;;;;;;18.85;8.23;;;7.40;55.60;;;;;;4950178;28;20427;-74
2022/03/15 01:38:47;;;;;;;14.25;8.40;;;7.40;55.50;;;;;;4944841;28;20442;-74
2022/03/15 01:41:13;;;;;;;16.85;8.75;;;7.40;55.60;;;;;;4944468;28;20834;-74
2022/03/15 01:43:40;;;;;;;21.20;8.63;;;7.40;54.90;;;;;;4932975;28;20435;-73
2022/03/15 01:46:09;;;;;;;15.65;7.90;;;7.50;54.40;;;;;;4934665;28;20470;-74
2022/03/15 01:48:35;;;;;;;20.45;9.18;;;7.50;54.10;;;;;;4970498;23;20453;-72
2022/03/15 01:51:02;;;;;;;17.40;8.50;;;7.50;54.10;;;;;;4915511;29;20449;-72
2022/03/15 01:53:29;;;;;;;19.60;8.87;;;7.50;54.10;;;;;;4917459;29;20893;-72
2022/03/15 01:55:54;;;;;;;22.02;9.10;;;7.50;54.10;;;;;;4914295;29;20516;-72
2022/03/15 01:58:21;;;;;;;17.67;8.87;;;7.50;54.70;;;;;;4921521;29;20499;-73
2022/03/15 02:00:48;;;;;;;14.20;7.45;;;7.50;53.80;;;;;;4928003;29;20914;-72
2022/03/15 02:03:13;;;;;;;15.23;8.00;;;7.60;52.70;;;;;;4914829;29;20421;-73
2022/03/15 02:05:39;;;;;;;19.50;8.40;;;7.50;53.30;;;;;;4928365;29;20404;-72
2022/03/15 02:08:12;;;;;;;16.87;8.70;;;7.80;53.70;;;;;;4914495;29;20500;-73
2022/03/15 02:10:38;;;;;;;20.88;8.63;;;7.50;54.20;;;;;;4915346;29;20417;-73
2022/03/15 02:13:04;;;;;;;18.90;7.90;;;7.50;54.00;;;;;;4924142;28;20501;-73
2022/03/15 02:15:29;;;;;;;14.73;7.90;;;7.60;53.90;;;;;;4922276;29;20409;-73
2022/03/15 02:17:55;;;;;;;18.67;8.27;;;7.60;52.30;;;;;;4915662;29;20912;-73
2022/03/15 02:20:21;;;;;;;14.40;8.07;;;7.60;52.10;;;;;;4915351;29;20897;-72
2022/03/15 02:22:47;;;;;;;14.07;8.02;;;7.60;52.40;;;;;;4916141;29;20804;-72
2022/03/15 02:25:13;;;;;;;18.60;8.68;;;7.60;52.70;;;;;;4917576;29;20406;-71
2022/03/15 02:27:39;;;;;;;17.55;8.02;;;7.60;52.40;;;;;;4923196;29;20399;-72
2022/03/15 02:30:06;;;;;;;20.10;9.13;;;7.60;52.90;;;;;;4933785;29;20746;-72
2022/03/15 02:32:32;;;;;;;19.70;8.80;;;7.60;52.50;;;;;;4930710;29;20483;-71
2022/03/15 02:34:57;;;;;;;17.25;7.78;;;7.60;52.40;;;;;;4907645;28;20492;-71
2022/03/15 02:37:24;;;;;;;16.02;8.43;;;7.60;51.70;;;;;;4929209;29;20498;-72
2022/03/15 02:39:50;;;;;;;16.90;8.77;;;7.70;51.60;;;;;;4933422;29;20420;-73
2022/03/15 02:42:17;;;;;;;21.48;8.25;;;7.70;51.30;;;;;;4926367;29;20408;-72
2022/03/15 02:44:42;;;;;;;16.07;7.90;;;7.70;52.10;;;;;;4918939;29;20444;-72
2022/03/15 02:47:08;;;;;;;16.58;8.40;;;7.70;51.90;;;;;;4916509;29;20961;-72
2022/03/15 02:49:33;;;;;;;16.05;7.85;;;7.70;52.30;;;;;;4903059;28;20415;-73
2022/03/15 02:51:59;;;;;;;16.23;7.70;;;7.70;52.20;;;;;;4923916;29;20420;-73
2022/03/15 02:54:25;;;;;;;15.88;7.40;;;7.70;51.40;;;;;;4914131;28;20767;-73
2022/03/15 02:56:51;;;;;;;17.20;8.30;;;7.80;50.60;;;;;;4918352;29;21006;-72
2022/03/15 02:59:17;;;;;;;16.35;8.18;;;7.70;51.60;;;;;;4920783;29;20464;-72
2022/03/15 03:01:44;;;;;;;19.88;8.65;;;7.70;51.10;;;;;;4918782;29;20508;-73
2022/03/15 03:04:10;;;;;;;15.05;8.35;;;7.70;51.60;;;;;;4925175;29;20442;-73
2022/03/15 03:06:42;;;;;;;18.67;8.20;;;7.70;51.60;;;;;;4918168;29;20412;-72
2022/03/15 03:09:09;;;;;;;13.55;7.45;;;7.70;50.60;;;;;;4919242;29;20411;-73
2022/03/15 03:11:34;;;;;;;15.73;8.38;;;7.70;51.50;;;;;;4919907;29;20409;-72
2022/03/15 03:14:00;;;;;;;14.43;7.87;;;7.70;51.30;;;;;;4916369;29;20405;-72
2022/03/15 03:16:27;;;;;;;12.68;7.60;;;7.70;51.30;;;;;;4912966;29;20496;-73
2022/03/15 03:18:59;;;;;;;18.80;8.10;;;7.70;51.10;;;;;;4912643;29;20425;-74
2022/03/15 03:21:26;;;;;;;22.07;8.70;;;7.70;51.40;;;;;;4926822;29;20411;-73
2022/03/15 03:23:53;;;;;;;16.23;8.07;;;7.60;51.20;;;;;;4927099;29;20840;-73
2022/03/15 03:26:19;;;;;;;18.85;7.50;;;7.70;51.40;;;;;;4920672;29;20496;-74
2022/03/15 03:28:45;;;;;;;15.77;7.78;;;7.70;51.00;;;;;;4924927;29;20407;-73
2022/03/15 03:31:11;;;;;;;16.73;7.90;;;7.70;50.80;;;;;;4917644;29;20447;-73
2022/03/15 03:33:38;;;;;;;14.60;7.40;;;7.70;50.50;;;;;;4922027;29;20426;-73
2022/03/15 03:36:05;;;;;;;18.23;8.40;;;7.80;50.20;;;;;;4913339;28;20402;-73
2022/03/15 03:38:30;;;;;;;20.55;7.75;;;7.70;50.30;;;;;;4905607;28;20480;-74
2022/03/15 03:40:56;;;;;;;13.63;7.00;;;7.80;50.00;;;;;;4913109;28;20575;-74
2022/03/15 03:43:22;;;;;;;15.10;6.70;;;7.80;50.10;;;;;;4926142;29;20807;-74
2022/03/15 03:45:48;;;;;;;13.80;7.30;;;7.80;50.30;;;;;;4923468;29;20491;-73
2022/03/15 03:48:14;;;;;;;19.17;7.77;;;7.70;49.40;;;;;;4923238;29;20409;-74
2022/03/15 03:50:40;;;;;;;16.27;7.80;;;7.70;50.30;;;;;;4916607;29;20409;-73
2022/03/15 03:53:06;;;;;;;13.07;7.90;;;7.80;49.00;;;;;;4917068;29;20819;-72
2022/03/15 03:55:32;;;;;;;15.45;7.53;;;7.80;48.90;;;;;;4919742;29;20409;-73
2022/03/15 03:57:57;;;;;;;11.68;7.53;;;7.80;49.80;;;;;;4900631;28;20456;-73
2022/03/15 04:00:23;;;;;;;15.10;7.88;;;7.80;48.40;;;;;;4916903;29;20434;-74
2022/03/15 04:02:48;;;;;;;16.90;7.50;;;7.80;49.40;;;;;;4914606;29;20439;-73
2022/03/15 04:05:16;;;;;;;16.17;7.68;;;7.80;49.90;;;;;;4916579;29;20413;-73
2022/03/15 04:07:42;;;;;;;14.80;7.13;;;7.80;49.70;;;;;;4926347;29;20805;-74
2022/03/15 04:10:09;;;;;;;12.15;7.50;;;7.80;49.30;;;;;;4916180;29;20405;-73
2022/03/15 04:12:36;;;;;;;16.55;7.55;;;7.70;50.00;;;;;;4917004;29;20934;-73
2022/03/15 04:15:03;;;;;;;12.95;7.35;;;7.70;50.00;;;;;;4921938;29;20423;-74
2022/03/15 04:17:29;;;;;;;14.60;7.72;;;7.60;50.80;;;;;;4920385;29;20424;-73
2022/03/15 04:19:54;;;;;;;17.48;7.90;;;7.60;50.90;;;;;;4926115;29;20510;-73
2022/03/15 04:22:21;;;;;;;14.95;7.40;;;7.50;51.90;;;;;;4923258;29;20409;-72
2022/03/15 04:24:46;;;;;;;15.70;7.90;;;7.60;51.70;;;;;;4930552;29;20403;-73
2022/03/15 04:27:12;;;;;;;13.02;7.20;;;7.60;51.40;;;;;;4925835;29;20473;-75
2022/03/15 04:29:38;;;;;;;17.08;7.68;;;7.60;52.00;;;;;;4916159;29;20412;-73
2022/03/15 04:32:04;;;;;;;15.82;8.00;;;7.60;51.90;;;;;;4918382;29;20568;-73
2022/03/15 04:34:31;;;;;;;15.10;7.80;;;7.50;52.30;;;;;;4916375;29;20464;-73
2022/03/15 04:36:57;;;;;;;13.95;7.70;;;7.50;52.80;;;;;;4915732;28;20405;-74
2022/03/15 04:39:23;;;;;;;20.58;7.75;;;7.60;53.50;;;;;;4916457;29;20793;-73
2022/03/15 04:41:50;;;;;;;19.67;8.38;;;7.50;52.80;;;;;;4919693;29;20407;-73
2022/03/15 04:44:16;;;;;;;12.40;7.18;;;7.50;54.20;;;;;;4926560;29;20418;-74
2022/03/15 04:46:43;;;;;;;17.52;8.27;;;7.50;53.40;;;;;;4923080;29;20436;-74
2022/03/15 04:49:08;;;;;;;17.48;7.80;;;7.50;53.50;;;;;;4925628;29;20408;-74
2022/03/15 04:51:34;;;;;;;13.25;7.55;;;7.40;53.40;;;;;;4909869;29;20448;-74
2022/03/15 04:54:00;;;;;;;13.05;7.35;;;7.40;53.60;;;;;;4928650;29;20412;-74
2022/03/15 04:56:25;;;;;;;18.10;8.00;;;7.40;53.80;;;;;;4915752;29;20403;-73
2022/03/15 04:58:51;;;;;;;19.03;7.67;;;7.30;54.20;;;;;;4915239;29;20436;-73
2022/03/15 05:01:17;;;;;;;17.23;7.83;;;7.30;54.50;;;;;;4899021;28;20414;-73
2022/03/15 05:03:43;;;;;;;12.20;7.22;;;7.30;54.60;;;;;;4923058;29;20448;-73
2022/03/15 05:06:09;;;;;;;18.08;8.05;;;7.30;54.80;;;;;;4921503;29;20401;-73
2022/03/15 05:08:34;;;;;;;11.90;7.07;;;7.30;54.80;;;;;;4913647;29;20396;-74
2022/03/15 05:11:06;;;;;;;13.33;7.30;;;7.30;54.70;;;;;;4925423;29;20403;-74
2022/03/15 05:13:46;;;;;;;11.80;6.82;;;7.30;54.60;;;;;;4910117;29;20442;-74
2022/03/15 05:16:17;;;;;;;11.48;6.90;;;7.30;54.80;;;;;;4927075;29;20414;-74
2022/03/15 05:18:45;;;;;;;15.50;7.65;;;7.40;53.60;;;;;;4918404;29;20769;-73
2022/03/15 05:21:16;;;;;;;13.93;6.60;;;7.30;53.70;;;;;;4933149;29;20408;-74
2022/03/15 05:23:43;;;;;;;20.23;7.23;;;7.40;52.90;;;;;;4932604;29;20416;-73
2022/03/15 05:26:09;;;;;;;16.30;6.50;;;7.40;52.00;;;;;;4921432;29;20401;-74
2022/03/15 05:28:35;;;;;;;15.37;6.87;;;7.50;51.90;;;;;;4918149;29;20770;-73
2022/03/15 05:31:01;;;;;;;14.65;6.68;;;7.50;51.40;;;;;;4923546;29;20426;-73
2022/03/15 05:33:30;;;;;;;11.70;6.55;;;7.60;51.90;;;;;;4918650;29;20408;-73
2022/03/15 05:35:55;;;;;;;13.70;6.28;;;7.60;51.20;;;;;;4928524;29;20993;-73
2022/03/15 05:38:21;;;;;;;12.97;5.80;;;7.50;51.30;;;;;;4925120;29;20443;-72
2022/03/15 05:40:47;;;;;;;9.90;5.87;;;7.60;50.80;;;;;;4923172;29;20426;-72
2022/03/15 05:43:13;;;;;;;10.93;6.43;;;7.60;50.40;;;;;;4926268;29;20408;-72
2022/03/15 05:45:39;;;;;;;14.98;6.50;;;7.60;50.00;;;;;;4923653;29;20408;-73
2022/03/15 05:48:05;;;;;;;14.48;6.25;;;7.60;49.90;;;;;;4923169;29;20692;-73
2022/03/15 05:50:31;;;;;;;16.85;6.47;;;7.60;49.70;;;;;;4917880;29;20963;-73
2022/03/15 05:52:57;;;;;;;14.23;6.30;;;7.70;49.30;;;;;;4915810;29;20513;-73
2022/03/15 05:55:23;;;;;;;18.27;6.45;;;7.70;49.50;;;;;;4924417;29;20846;-72
2022/03/15 05:57:48;;;;;;;13.23;5.95;;;7.60;49.40;;;;;;4931089;29;20449;-73
2022/03/15 06:00:15;;;;;;;16.30;6.00;;;7.70;49.10;;;;;;4927168;29;20547;-74
2022/03/15 06:02:41;;;;;;;13.38;5.80;;;7.70;48.70;;;;;;4925367;29;20429;-74
2022/03/15 06:05:08;;;;;;;9.30;5.80;;;7.80;48.30;;;;;;4916215;29;20524;-73
2022/03/15 06:07:33;;;;;;;12.05;5.80;;;7.80;48.30;;;;;;4931047;29;20404;-73
2022/03/15 06:09:59;;;;;;;9.82;6.32;;;7.80;48.30;;;;;;4923674;28;20401;-72
2022/03/15 06:12:25;;;;;;;16.35;6.25;;;7.80;49.00;;;;;;4915711;29;20415;-74
2022/03/15 06:14:51;;;;;;;15.47;6.27;;;7.80;49.60;;;;;;4928299;29;20404;-74
2022/03/15 06:17:18;;;;;;;13.73;6.38;;;7.80;49.30;;;;;;4921588;29;20423;-72
2022/03/15 06:19:43;;;;;;;12.30;5.88;;;7.80;49.40;;;;;;4919425;29;20441;-72
2022/03/15 06:22:09;;;;;;;12.30;5.90;;;7.80;48.90;;;;;;4919196;29;20794;-75
2022/03/15 06:24:34;;;;;;;12.95;6.35;;;7.80;48.90;;;;;;4898395;28;20421;-73
2022/03/15 06:27:00;;;;;;;13.90;6.10;;;7.90;49.00;;;;;;4923819;29;20427;-73
2022/03/15 06:29:27;;;;;;;15.32;6.05;;;7.90;48.70;;;;;;4915958;29;20412;-73
2022/03/15 06:31:55;;;;;;;9.20;5.90;;;7.90;48.40;;;;;;4914297;29;20496;-74
2022/03/15 06:34:21;;;;;;;13.73;5.80;;;8.00;48.60;;;;;;4920304;28;20408;-73
2022/03/15 06:36:47;;;;;;;12.55;6.13;;;8.00;47.50;;;;;;4914527;28;20463;-74
2022/03/15 06:39:13;;;;;;;10.85;5.43;;;8.00;47.70;;;;;;4917714;28;20455;-74
2022/03/15 06:41:39;;;;;;;18.02;6.10;;;8.10;48.20;;;;;;4922839;28;20399;-74
2022/03/15 06:44:06;;;;;;;12.95;6.30;;;8.10;47.10;;;;;;4899977;28;20410;-73
2022/03/15 06:46:32;;;;;;;21.20;6.50;;;8.20;46.60;;;;;;4920139;29;20441;-74
2022/03/15 06:49:00;;;;;;;13.90;6.20;;;8.20;45.80;;;;;;4916813;29;20413;-74
2022/03/15 06:51:27;;;;;;;19.63;6.60;;;8.30;46.00;;;;;;4929377;28;20816;-73
2022/03/15 06:53:53;;;;;;;14.23;5.25;;;8.20;45.70;;;;;;4904849;28;20427;-72
2022/03/15 06:56:20;;;;;;;16.40;6.43;;;8.30;45.60;;;;;;4916899;29;20409;-73
2022/03/15 06:58:46;;;;;;;14.45;6.22;;;8.40;44.80;;;;;;4920601;29;20890;-72
2022/03/15 07:01:12;;;;;;;13.60;6.78;;;8.50;44.40;;;;;;4917434;28;20425;-73
2022/03/15 07:03:37;;;;;;;25.73;10.83;;;8.50;42.90;;;;;;4921970;28;20404;-72
2022/03/15 07:06:03;;;;;;;21.50;7.90;;;8.60;43.40;;;;;;4918977;29;20977;-72
2022/03/15 07:08:30;;;;;;;23.15;6.95;;;8.70;42.70;;;;;;4914590;29;20461;-72
2022/03/15 07:10:56;;;;;;;15.23;6.70;;;8.70;42.20;;;;;;4913938;29;20936;-72
2022/03/15 07:13:21;;;;;;;7.85;5.10;;;8.80;41.90;;;;;;4917211;28;20500;-72
2022/03/15 07:15:47;;;;;;;15.90;6.85;;;9.00;40.30;;;;;;4922778;28;20480;-72
2022/03/15 07:18:15;;;;;;;14.80;5.70;;;9.00;39.60;;;;;;4916179;28;20521;-71
2022/03/15 07:20:41;;;;;;;18.23;5.73;;;9.00;39.80;;;;;;4923219;28;20965;-74
2022/03/15 07:23:07;;;;;;;15.73;5.97;;;9.00;39.20;;;;;;4913679;29;20472;-71
2022/03/15 07:25:32;;;;;;;16.38;6.00;;;9.30;38.50;;;;;;4917618;29;20986;-72
2022/03/15 07:27:58;;;;;;;19.60;6.55;;;9.40;38.30;;;;;;4915781;29;20483;-73
2022/03/15 07:30:24;;;;;;;13.68;5.90;;;9.50;38.30;;;;;;4904634;29;20413;-72
2022/03/15 07:32:50;;;;;;;16.13;5.80;;;9.50;37.90;;;;;;4920950;29;20408;-72
2022/03/15 07:35:16;;;;;;;11.57;5.38;;;9.40;37.70;;;;;;4925256;28;20782;-72
2022/03/15 07:37:54;;;;;;;13.82;5.72;;;9.40;37.90;;;;;;4915310;29;20409;-72
2022/03/15 07:40:20;;;;;;;11.55;5.00;;;9.40;38.10;;;;;;4919195;28;20426;-72
2022/03/15 07:42:46;;;;;;;14.18;6.00;;;9.50;38.30;;;;;;4909212;29;20830;-72
2022/03/15 07:45:11;;;;;;;14.52;6.10;;;9.50;37.80;;;;;;4920571;29;20435;-75
2022/03/15 07:47:37;;;;;;;16.65;5.63;;;9.60;37.40;;;;;;4924775;29;20590;-72
2022/03/15 07:50:03;;;;;;;12.38;5.60;;;9.60;37.30;;;;;;4943949;22;20993;-76
2022/03/15 07:52:29;;;;;;;10.88;5.70;;;9.70;36.90;;;;;;4923398;28;20481;-76
2022/03/15 07:54:54;;;;;;;19.23;6.23;;;9.70;36.80;;;;;;4948238;28;20446;-75
2022/03/15 07:57:20;;;;;;;12.55;5.88;;;9.80;36.50;;;;;;4924484;28;20411;-76
2022/03/15 07:59:46;;;;;;;13.02;5.78;;;10.00;35.70;;;;;;4933425;28;20470;-76
2022/03/15 08:02:12;;;;;;;9.57;5.00;;;10.20;35.20;;;;;;4930398;28;20475;-76
2022/03/15 08:04:38;;;;;;;11.48;4.80;;;10.30;34.40;;;;;;4949614;28;20825;-74
2022/03/15 08:07:04;;;;;;;7.80;3.88;;;10.30;33.80;;;;;;4939520;28;20404;-74
2022/03/15 08:09:29;;;;;;;9.70;4.55;;;10.40;33.60;;;;;;4933414;28;20445;-75
2022/03/15 08:11:55;;;;;;;9.05;4.43;;;10.50;33.20;;;;;;4930799;28;20408;-75
2022/03/15 08:14:20;;;;;;;17.17;4.90;;;10.60;32.80;;;;;;4909467;28;20419;-73
2022/03/15 08:16:46;;;;;;;12.20;4.40;;;10.60;32.10;;;;;;4926865;28;20939;-77
2022/03/15 08:19:12;;;;;;;15.85;5.47;;;10.70;31.90;;;;;;4931065;29;20411;-75
2022/03/15 08:21:37;;;;;;;11.87;5.30;;;10.70;31.30;;;;;;4934278;28;20404;-74
2022/03/15 08:24:03;;;;;;;12.10;4.63;;;10.80;31.50;;;;;;4933140;28;20399;-73
2022/03/15 08:26:29;;;;;;;12.73;4.50;;;10.80;31.20;;;;;;4931595;29;20419;-74
2022/03/15 08:28:54;;;;;;;10.40;3.90;;;10.90;31.20;;;;;;4931809;28;20400;-75
2022/03/15 08:31:20;;;;;;;9.97;4.57;;;10.90;31.10;;;;;;4931197;29;20404;-77
2022/03/15 08:33:45;;;;;;;12.43;4.30;;;11.00;29.90;;;;;;4960199;28;20393;-76
2022/03/15 08:36:13;;;;;;;8.37;4.03;;;11.00;30.60;;;;;;4940401;28;20402;-74
2022/03/15 08:38:39;;;;;;;14.30;4.45;;;11.10;29.60;;;;;;4915381;29;20404;-77
2022/03/15 08:41:05;;;;;;;10.85;4.60;;;11.10;30.20;;;;;;4932681;29;20422;-76
2022/03/15 08:43:31;;;;;;;11.00;4.60;;;11.10;30.00;;;;;;4914317;28;20408;-76
2022/03/15 08:45:57;;;;;;;13.20;6.07;;;11.20;29.30;;;;;;4925248;28;20405;-76
2022/03/15 08:48:22;;;;;;;15.63;6.80;;;11.30;29.40;;;;;;4932168;29;20454;-77
2022/03/15 08:50:48;;;;;;;13.38;5.88;;;11.20;29.70;;;;;;4928610;28;20412;-77
2022/03/15 08:53:13;;;;;;;16.50;6.60;;;11.20;29.70;;;;;;4933730;28;20423;-77
2022/03/15 08:55:40;;;;;;;8.73;5.17;;;11.30;29.50;;;;;;4933185;28;20442;-76
2022/03/15 08:58:05;;;;;;;11.55;5.30;;;11.20;29.20;;;;;;4931934;29;20412;-75
2022/03/15 09:00:31;;;;;;;18.35;6.30;;;11.10;29.80;;;;;;4931383;28;20442;-74
2022/03/15 09:02:57;;;;;;;9.35;5.60;;;11.10;29.60;;;;;;4932738;28;20745;-76
2022/03/15 09:05:23;;;;;;;11.10;4.85;;;11.00;30.50;;;;;;4916702;28;21018;-75
2022/03/15 09:07:52;;;;;;;12.23;5.68;;;10.90;30.20;;;;;;4933889;28;20953;-75
2022/03/15 09:10:19;;;;;;;12.75;5.00;;;10.90;31.00;;;;;;4932684;28;20404;-75
2022/03/15 09:12:45;;;;;;;11.75;5.32;;;11.10;30.20;;;;;;4931010;28;20412;-74
2022/03/15 09:15:11;;;;;;;13.80;5.45;;;11.10;30.50;;;;;;4936747;28;20904;-76
2022/03/15 09:17:36;;;;;;;11.70;6.30;;;11.10;31.20;;;;;;4932277;28;20438;-76
2022/03/15 09:20:04;;;;;;;12.80;5.70;;;11.10;30.50;;;;;;4932742;28;20415;-77
2022/03/15 09:22:29;;;;;;;10.57;5.30;;;11.10;30.30;;;;;;4933746;29;20447;-76
2022/03/15 09:24:55;;;;;;;11.30;5.40;;;11.20;30.10;;;;;;4932794;28;20496;-76
2022/03/15 09:27:20;;;;;;;12.80;5.27;;;11.30;30.20;;;;;;4934382;28;20400;-76
2022/03/15 09:29:46;;;;;;;11.67;4.60;;;11.20;29.40;;;;;;4953187;28;20777;-74
2022/03/15 09:32:12;;;;;;;11.27;4.20;;;11.00;30.20;;;;;;4952710;28;20522;-76
2022/03/15 09:34:38;;;;;;;12.10;4.57;;;11.30;30.40;;;;;;4930318;28;20584;-77
2022/03/15 09:37:04;;;;;;;10.48;4.40;;;11.40;29.10;;;;;;4929069;28;20408;-76
2022/03/15 09:39:30;;;;;;;12.95;4.25;;;11.60;28.20;;;;;;4927039;28;20420;-76
2022/03/15 09:41:59;;;;;;;9.97;4.27;;;11.50;28.60;;;;;;4931781;28;20396;-77
2022/03/15 09:44:30;;;;;;;14.10;4.93;;;11.40;29.30;;;;;;4931739;29;20406;-77
2022/03/15 09:47:01;;;;;;;10.50;5.82;;;11.40;29.50;;;;;;4938133;28;20472;-77
2022/03/15 09:49:27;;;;;;;13.00;5.10;;;11.30;30.10;;;;;;4926563;28;20788;-77
2022/03/15 09:51:55;;;;;;;12.40;4.60;;;11.40;30.80;;;;;;4930897;28;20580;-76
2022/03/15 09:54:22;;;;;;;13.03;5.50;;;11.50;30.20;;;;;;4911905;28;20412;-76
2022/03/15 09:56:49;;;;;;;9.13;4.60;;;11.50;30.70;;;;;;4928953;28;20817;-75
2022/03/15 09:59:20;;;;;;;13.18;5.18;;;11.70;31.10;;;;;;4915676;28;20416;-77
2022/03/15 10:01:51;;;;;;;10.80;4.55;;;11.80;30.00;;;;;;4938773;28;20400;-77
2022/03/15 10:04:18;;;;;;;18.80;5.80;;;11.90;30.10;;;;;;4932206;28;20854;-77
2022/03/15 10:06:44;;;;;;;15.13;4.80;;;11.90;30.20;;;;;;4931146;29;20404;-76
2022/03/15 10:09:11;;;;;;;10.07;5.03;;;12.00;30.50;;;;;;4932798;28;20499;-77
2022/03/15 10:11:37;;;;;;;11.20;4.80;;;12.10;29.10;;;;;;4937410;28;20414;-76
2022/03/15 10:14:04;;;;;;;16.23;5.20;;;12.00;28.50;;;;;;4922464;29;20483;-77
2022/03/15 10:16:36;;;;;;;11.95;5.32;;;11.80;29.00;;;;;;4935262;28;20411;-76
2022/03/15 10:19:03;;;;;;;12.95;5.10;;;11.80;29.60;;;;;;4935564;28;20868;-76
2022/03/15 10:21:52;;;;;;;13.48;4.82;;;12.00;29.80;;;;;;4930925;29;20408;-76
2022/03/15 10:24:23;;;;;;;12.30;5.28;;;12.00;29.40;;;;;;4930012;28;20392;-75
2022/03/15 10:26:50;;;;;;;12.38;5.18;;;11.90;29.70;;;;;;4917224;29;20734;-76
2022/03/15 10:29:17;;;;;;;14.07;5.00;;;12.10;29.40;;;;;;4933545;29;20415;-77
2022/03/15 10:31:44;;;;;;;8.13;4.40;;;12.00;28.00;;;;;;4913540;28;20446;-75
2022/03/15 10:34:10;;;;;;;12.60;4.67;;;12.20;27.30;;;;;;4929942;29;20408;-75
2022/03/15 10:36:37;;;;;;;8.43;4.60;;;12.10;27.50;;;;;;4925425;28;20461;-77
2022/03/15 10:39:03;;;;;;;7.65;4.15;;;12.20;28.10;;;;;;4930853;28;20434;-76
2022/03/15 10:41:29;;;;;;;8.00;4.47;;;12.20;28.40;;;;;;4930559;28;20400;-75
2022/03/15 10:43:57;;;;;;;9.85;4.65;;;12.30;28.30;;;;;;4930605;28;20396;-77
2022/03/15 10:46:25;;;;;;;11.33;4.63;;;12.20;29.00;;;;;;4912209;28;21016;-75
2022/03/15 10:49:01;;;;;;;6.53;4.10;;;12.20;30.40;;;;;;4928977;28;20860;-74
2022/03/15 10:51:28;;;;;;;13.88;5.40;;;12.30;31.40;;;;;;4915830;28;20400;-75
2022/03/15 10:54:00;;;;;;;15.40;6.35;;;12.30;31.50;;;;;;4929472;29;20403;-75
2022/03/15 10:56:26;;;;;;;15.38;4.80;;;12.40;32.30;;;;;;4941295;28;20400;-75
2022/03/15 10:58:55;;;;;;;11.97;4.60;;;12.50;29.80;;;;;;4933414;28;20592;-76
2022/03/15 11:01:23;;;;;;;9.38;4.78;;;12.70;27.80;;;;;;4930367;28;20408;-76
2022/03/15 11:03:56;;;;;;;13.82;4.43;;;12.60;28.80;;;;;;4930790;28;20606;-75
2022/03/15 11:06:38;;;;;;;9.60;4.40;;;12.50;27.80;;;;;;4940310;29;20463;-75
2022/03/15 11:09:35;;;;;;;11.07;4.47;;;12.50;28.80;;;;;;4945506;28;20915;-76
2022/03/15 11:12:06;;;;;;;7.60;4.53;;;12.40;29.10;;;;;;4925618;29;20521;-75
2022/03/15 11:14:51;;;;;;;10.60;5.63;;;12.20;30.20;;;;;;4928918;28;20415;-75
2022/03/15 11:17:20;;;;;;;10.13;4.70;;;12.30;31.10;;;;;;4925608;28;20928;-75
2022/03/15 11:19:49;;;;;;;7.97;4.95;;;12.40;30.40;;;;;;4911421;28;20435;-75
2022/03/15 11:22:20;;;;;;;7.70;4.10;;;12.40;29.70;;;;;;4928960;29;20407;-75
2022/03/15 11:25:20;;;;;;;15.48;5.03;;;12.50;29.10;;;;;;4929141;29;20873;-76
2022/03/15 11:27:47;;;;;;;13.43;5.10;;;12.50;30.10;;;;;;4927443;28;20411;-76
2022/03/15 11:30:19;;;;;;;9.70;5.07;;;12.30;29.50;;;;;;4929221;28;20796;-75
2022/03/15 11:32:45;;;;;;;10.38;5.00;;;12.20;30.00;;;;;;4930393;28;20404;-73
2022/03/15 11:35:18;;;;;;;10.20;5.10;;;12.50;29.20;;;;;;4930330;28;20447;-76
2022/03/15 11:37:44;;;;;;;9.15;5.13;;;12.40;28.60;;;;;;4928608;28;20412;-75
2022/03/15 11:40:11;;;;;;;11.50;4.60;;;12.40;30.30;;;;;;4928931;28;20426;-75
2022/03/15 11:42:42;;;;;;;10.18;5.10;;;12.50;30.00;;;;;;4910741;28;20400;-75
2022/03/15 11:45:23;;;;;;;11.88;6.45;;;12.40;30.40;;;;;;4928924;29;20396;-76
2022/03/15 11:48:08;;;;;;;11.80;5.90;;;12.50;31.00;;;;;;4927828;28;20494;-74
2022/03/15 11:50:47;;;;;;;7.13;5.03;;;12.60;30.20;;;;;;4931501;28;20408;-75
2022/03/15 11:53:44;;;;;;;9.85;5.78;;;12.70;30.50;;;;;;4928268;28;20419;-75
2022/03/15 11:56:27;;;;;;;11.13;5.50;;;12.40;30.30;;;;;;4928207;29;20408;-74
2022/03/15 11:58:55;;;;;;;12.68;5.68;;;12.30;31.50;;;;;;4910891;29;20414;-75
2022/03/15 12:01:24;;;;;;;12.53;5.50;;;12.40;30.90;;;;;;4926425;29;20520;-75
2022/03/15 12:03:52;;;;;;;10.10;5.47;;;12.60;30.10;;;;;;4926454;29;20523;-75
2022/03/15 12:06:28;;;;;;;12.60;5.22;;;12.60;30.20;;;;;;4927763;28;20423;-74
2022/03/15 12:08:57;;;;;;;7.78;5.20;;;12.70;29.60;;;;;;4926320;29;20479;-74
2022/03/15 12:11:37;;;;;;;12.23;5.40;;;12.70;30.00;;;;;;4910660;28;20416;-75
2022/03/15 12:14:11;;;;;;;11.07;5.53;;;12.60;30.00;;;;;;4910314;28;20408;-75
2022/03/15 12:16:44;;;;;;;12.45;5.90;;;12.60;30.90;;;;;;4927064;28;20419;-76
2022/03/15 12:19:27;;;;;;;11.25;5.97;;;12.40;33.10;;;;;;4931318;28;20481;-75
2022/03/15 12:21:55;;;;;;;11.57;6.77;;;12.40;32.50;;;;;;4914170;28;20550;-77
2022/03/15 12:24:41;;;;;;;9.20;5.20;;;12.50;33.40;;;;;;4932744;28;20407;-75
2022/03/15 12:27:10;;;;;;;10.48;5.60;;;12.60;32.20;;;;;;4932105;28;20414;-75
2022/03/15 12:29:36;;;;;;;9.05;5.35;;;12.70;31.90;;;;;;4930102;28;20476;-75
2022/03/15 12:32:14;;;;;;;11.57;5.70;;;12.80;32.50;;;;;;4931435;29;20484;-75
2022/03/15 12:34:43;;;;;;;11.37;5.90;;;12.80;32.90;;;;;;4931258;28;20864;-78
2022/03/15 12:37:09;;;;;;;10.00;5.45;;;12.90;32.10;;;;;;4934092;29;20430;-76
2022/03/15 12:39:35;;;;;;;12.67;6.53;;;12.60;30.80;;;;;;4935898;28;20490;-75
2022/03/15 12:42:13;;;;;;;14.23;5.65;;;12.70;31.40;;;;;;4931577;28;20403;-76
2022/03/15 12:44:50;;;;;;;9.13;5.25;;;12.50;32.70;;;;;;4931999;28;20403;-74